createdAt,value
2018-05-10T00:01:29.498Z,5.87
2018-05-10T00:03:56.105Z,4.80
2018-05-10T00:06:22.744Z,5.83
2018-05-10T00:08:49.241Z,6.03
2018-05-10T00:11:15.715Z,4.50
2018-05-10T00:13:42.098Z,6.50
2018-05-10T00:16:09.247Z,5.40
2018-05-10T00:18:35.661Z,5.20
2018-05-10T00:21:02.110Z,5.63
2018-05-10T00:23:28.492Z,5.47
2018-05-10T00:25:54.998Z,5.63
2018-05-10T00:28:21.582Z,4.67
2018-05-10T00:30:48.102Z,4.60
2018-05-10T00:33:14.535Z,4.47
2018-05-10T00:35:41.069Z,4.60
2018-05-10T00:38:07.493Z,4.87
2018-05-10T00:40:33.922Z,4.60
2018-05-10T00:43:00.371Z,4.20
2018-05-10T00:45:26.938Z,4.47
2018-05-10T00:47:53.333Z,4.63
2018-05-10T00:50:19.751Z,3.90
2018-05-10T00:52:46.161Z,3.97
2018-05-10T00:55:12.635Z,4.87
2018-05-10T00:57:39.098Z,4.20
2018-05-10T01:00:05.512Z,3.27
2018-05-10T01:02:32.028Z,3.90
2018-05-10T01:04:58.539Z,4.20
2018-05-10T01:07:24.887Z,4.10
2018-05-10T01:09:51.311Z,4.13
2018-05-10T01:12:17.744Z,3.90
2018-05-10T01:14:44.180Z,4.10
2018-05-10T01:17:11.523Z,4.20
2018-05-10T01:19:37.977Z,4.00
2018-05-10T01:22:04.566Z,4.30
2018-05-10T01:24:31.047Z,3.87
2018-05-10T01:26:58.515Z,3.97
2018-05-10T01:29:25.094Z,4.27
2018-05-10T01:31:51.529Z,4.83
2018-05-10T01:34:18.179Z,4.80
2018-05-10T01:36:44.673Z,4.03
2018-05-10T01:39:11.150Z,4.80
2018-05-10T01:41:37.548Z,4.10
2018-05-10T01:44:04.010Z,4.83
2018-05-10T01:46:30.863Z,4.03
2018-05-10T01:48:57.367Z,3.90
2018-05-10T01:51:23.783Z,3.57
2018-05-10T01:53:50.957Z,3.97
2018-05-10T01:56:17.401Z,3.30
2018-05-10T01:58:43.880Z,3.10
2018-05-10T02:01:10.359Z,4.40
2018-05-10T02:03:36.741Z,3.43
2018-05-10T02:06:03.246Z,3.60
2018-05-10T02:08:29.678Z,3.50
2018-05-10T02:10:56.096Z,3.70
2018-05-10T02:13:23.483Z,3.37
2018-05-10T02:15:49.988Z,3.50
2018-05-10T02:18:16.377Z,4.60
2018-05-10T02:20:43.480Z,3.60
2018-05-10T02:23:09.936Z,4.30
2018-05-10T02:25:36.348Z,4.00
2018-05-10T02:28:02.906Z,5.10
2018-05-10T02:30:29.413Z,4.30
2018-05-10T02:32:55.846Z,3.70
2018-05-10T02:35:22.475Z,4.00
2018-05-10T02:37:48.953Z,3.33
2018-05-10T02:40:15.570Z,3.90
2018-05-10T02:42:41.987Z,4.10
2018-05-10T02:45:08.496Z,4.60
2018-05-10T02:47:35.466Z,3.27
2018-05-10T02:50:01.908Z,3.77
2018-05-10T02:52:28.364Z,4.30
2018-05-10T02:54:54.994Z,3.70
2018-05-10T02:57:21.430Z,4.78
2018-05-10T02:59:47.829Z,5.37
2018-05-10T03:02:14.379Z,4.30
2018-05-10T03:04:41.085Z,4.95
2018-05-10T03:07:07.615Z,4.68
2018-05-10T03:09:34.107Z,4.68
2018-05-10T03:12:01.368Z,3.60
2018-05-10T03:14:27.770Z,4.32
2018-05-10T03:16:54.340Z,4.60
2018-05-10T03:19:20.757Z,4.32
2018-05-10T03:21:47.176Z,4.65
2018-05-10T03:24:14.373Z,5.10
2018-05-10T03:26:40.770Z,5.10
2018-05-10T03:29:08.224Z,4.87
2018-05-10T03:31:34.921Z,5.68
2018-05-10T03:34:01.412Z,4.40
2018-05-10T03:36:27.979Z,4.65
2018-05-10T03:38:54.402Z,4.78
2018-05-10T03:41:20.855Z,5.55
2018-05-10T03:43:47.308Z,5.15
2018-05-10T03:46:14.174Z,4.82
2018-05-10T03:48:41.412Z,6.30
2018-05-10T03:51:12.070Z,5.90
2018-05-10T03:53:38.481Z,6.18
2018-05-10T03:56:05.026Z,6.15
2018-05-10T03:58:32.142Z,5.25
2018-05-10T04:00:58.895Z,5.18
2018-05-10T04:03:50.360Z,5.70
2018-05-10T04:06:35.204Z,5.87
2018-05-10T04:09:20.149Z,6.87
2018-05-10T04:11:46.737Z,6.47
2018-05-10T04:14:13.130Z,5.47
2018-05-10T04:16:39.569Z,6.28
2018-05-10T04:19:05.969Z,7.25
2018-05-10T04:21:32.447Z,6.47
2018-05-10T04:23:58.925Z,5.80
2018-05-10T04:26:25.402Z,7.80
2018-05-10T04:28:51.846Z,6.95
2018-05-10T04:31:18.478Z,7.72
2018-05-10T04:33:44.951Z,6.72
2018-05-10T04:36:15.862Z,7.10
2018-05-10T04:38:43.006Z,5.30
2018-05-10T04:41:09.408Z,5.60
2018-05-10T04:43:35.978Z,5.03
2018-05-10T04:46:02.342Z,5.18
2018-05-10T04:48:28.783Z,6.22
2018-05-10T04:50:59.547Z,5.72
2018-05-10T04:53:26.905Z,5.20
2018-05-10T04:55:53.378Z,6.05
2018-05-10T04:58:19.807Z,6.40
2018-05-10T05:00:46.646Z,6.10
2018-05-10T05:03:13.125Z,7.47
2018-05-10T05:05:40.216Z,7.70
2018-05-10T05:08:06.611Z,7.97
2018-05-10T05:10:33.801Z,7.32
2018-05-10T05:13:01.044Z,8.18
2018-05-10T05:15:27.494Z,8.98
2018-05-10T05:17:53.920Z,9.70
2018-05-10T05:20:20.603Z,9.60
2018-05-10T05:22:47.451Z,9.90
2018-05-10T05:25:14.090Z,10.40
2018-05-10T05:27:41.267Z,10.32
2018-05-10T05:30:07.791Z,11.60
2018-05-10T05:32:34.312Z,12.10
2018-05-10T05:35:00.830Z,15.40
2018-05-10T05:37:27.257Z,13.53
2018-05-10T05:39:53.656Z,13.05
2018-05-10T05:42:20.470Z,13.70
2018-05-10T05:44:46.889Z,12.75
2018-05-10T05:47:13.343Z,13.45
2018-05-10T05:49:39.756Z,13.82
2018-05-10T05:52:06.285Z,14.75
2018-05-10T05:54:32.904Z,16.02
2018-05-10T05:57:00.130Z,16.90
2018-05-10T05:59:26.671Z,15.63
2018-05-10T06:01:53.174Z,14.98
2018-05-10T06:04:19.718Z,14.85
2018-05-10T06:06:46.234Z,15.32
2018-05-10T06:09:12.775Z,16.05
2018-05-10T06:11:39.277Z,14.80
2018-05-10T06:14:05.791Z,13.85
2018-05-10T06:16:32.996Z,16.62
2018-05-10T06:18:59.478Z,15.15
2018-05-10T06:21:25.862Z,15.77
2018-05-10T06:23:53.069Z,13.80
2018-05-10T06:26:19.658Z,14.52
2018-05-10T06:28:46.289Z,14.82
2018-05-10T06:31:13.291Z,16.12
2018-05-10T06:33:40.693Z,14.77
2018-05-10T06:36:20.175Z,15.65
2018-05-10T06:38:48.865Z,17.92
2018-05-10T06:41:16.034Z,15.40
2018-05-10T06:43:42.757Z,15.30
2018-05-10T06:46:09.182Z,16.17
2018-05-10T06:48:35.875Z,17.00
2018-05-10T06:51:02.843Z,16.10
2018-05-10T06:53:29.748Z,15.98
2018-05-10T06:56:01.783Z,20.08
2018-05-10T06:58:28.409Z,17.67
2018-05-10T07:00:59.351Z,16.80
2018-05-10T07:03:25.856Z,16.40
2018-05-10T07:05:52.277Z,18.00
2018-05-10T07:08:18.874Z,15.90
2018-05-10T07:10:45.612Z,17.90
2018-05-10T07:13:12.124Z,17.47
2018-05-10T07:15:38.853Z,18.30
2018-05-10T07:18:05.266Z,15.77
2018-05-10T07:20:32.371Z,17.60
2018-05-10T07:22:58.985Z,17.43
2018-05-10T07:25:25.494Z,17.03
2018-05-10T07:27:51.992Z,23.00
2018-05-10T07:30:18.758Z,17.23
2018-05-10T07:32:45.106Z,16.23
2018-05-10T07:35:12.302Z,17.23
2018-05-10T07:37:38.685Z,17.00
2018-05-10T07:40:05.979Z,16.73
2018-05-10T07:42:32.377Z,19.30
2018-05-10T07:44:59.523Z,17.87
2018-05-10T07:47:26.079Z,18.20
2018-05-10T07:49:52.401Z,18.90
2018-05-10T07:52:18.797Z,17.73
2018-05-10T07:54:45.252Z,20.00
2018-05-10T07:57:12.329Z,17.87
2018-05-10T07:59:38.696Z,19.57
2018-05-10T08:02:05.175Z,18.73
2018-05-10T08:04:31.660Z,19.50
2018-05-10T08:06:58.291Z,21.00
2018-05-10T08:09:26.287Z,19.37
2018-05-10T08:11:52.869Z,18.80
2018-05-10T08:14:19.526Z,17.40
2018-05-10T08:16:46.779Z,20.17
2018-05-10T08:19:13.442Z,22.63
2018-05-10T08:21:41.059Z,21.97
2018-05-10T08:24:09.304Z,21.30
2018-05-10T08:26:36.486Z,21.53
2018-05-10T08:29:04.291Z,19.07
2018-05-10T08:31:31.328Z,16.13
2018-05-10T08:33:58.233Z,19.67
2018-05-10T08:36:25.406Z,19.33
2018-05-10T08:38:53.180Z,17.93
2018-05-10T08:41:33.666Z,18.00
2018-05-10T08:44:09.368Z,19.93
2018-05-10T08:46:38.514Z,20.40
2018-05-10T08:51:45.197Z,19.17
2018-05-10T08:54:18.541Z,21.00
2018-05-10T08:56:46.845Z,19.83
2018-05-10T08:59:21.034Z,18.80
2018-05-10T09:01:59.328Z,20.27
2018-05-10T09:04:31.940Z,18.97
2018-05-10T09:06:59.306Z,20.70
2018-05-10T09:09:26.634Z,21.50
2018-05-10T09:11:53.662Z,20.00
2018-05-10T09:14:20.269Z,19.67
2018-05-10T09:16:46.747Z,19.73
2018-05-10T09:19:15.348Z,19.60
2018-05-10T09:21:42.894Z,18.43
2018-05-10T09:24:14.201Z,20.23
2018-05-10T09:26:41.019Z,17.80
2018-05-10T09:29:08.214Z,18.57
2018-05-10T09:31:35.883Z,19.63
2018-05-10T09:34:02.802Z,20.43
2018-05-10T09:36:29.932Z,18.73
2018-05-10T09:38:57.594Z,21.10
2018-05-10T09:41:24.969Z,20.77
2018-05-10T09:43:52.234Z,22.57
2018-05-10T09:46:19.685Z,22.30
2018-05-10T09:48:46.737Z,24.90
2018-05-10T09:51:13.237Z,24.63
2018-05-10T09:53:39.603Z,22.33
2018-05-10T09:56:06.028Z,28.23
2018-05-10T09:58:32.520Z,30.50
2018-05-10T10:00:58.969Z,29.53
2018-05-10T10:03:25.333Z,29.83
2018-05-10T10:05:51.731Z,31.00
2018-05-10T10:08:18.385Z,30.87
2018-05-10T10:10:44.732Z,30.30
2018-05-10T10:13:11.278Z,29.30
2018-05-10T10:15:37.887Z,29.20
2018-05-10T10:18:05.102Z,29.53
2018-05-10T10:20:31.527Z,28.75
2018-05-10T10:23:03.416Z,28.20
2018-05-10T10:25:29.830Z,28.17
2018-05-10T10:27:56.601Z,29.93
2018-05-10T10:30:22.950Z,27.30
2018-05-10T10:32:49.369Z,27.23
2018-05-10T10:35:16.053Z,27.50
2018-05-10T10:37:46.546Z,27.90
2018-05-10T10:40:13.069Z,28.87
2018-05-10T10:42:39.388Z,27.65
2018-05-10T10:45:05.785Z,26.93
2018-05-10T10:47:32.968Z,27.90
2018-05-10T10:49:59.370Z,29.70
2018-05-10T10:52:25.745Z,26.98
2018-05-10T10:54:56.375Z,26.12
2018-05-10T10:57:22.746Z,28.20
2018-05-10T10:59:49.141Z,28.57
2018-05-10T11:02:15.524Z,26.00
2018-05-10T11:04:42.629Z,27.20
2018-05-10T11:07:09.099Z,25.20
2018-05-10T11:09:35.803Z,27.30
2018-05-10T11:12:02.328Z,28.53
2018-05-10T11:14:28.822Z,25.57
2018-05-10T11:16:56.038Z,26.13
2018-05-10T11:19:22.486Z,26.30
2018-05-10T11:21:49.686Z,26.77
2018-05-10T11:24:16.129Z,27.77
2018-05-10T11:26:42.567Z,26.70
2018-05-10T11:29:09.110Z,27.90
2018-05-10T11:31:35.624Z,29.60
2018-05-10T11:34:02.000Z,28.50
2018-05-10T11:36:28.574Z,29.43
2018-05-10T11:38:54.970Z,28.00
2018-05-10T11:41:22.262Z,29.90
2018-05-10T11:43:48.693Z,28.90
2018-05-10T11:46:15.149Z,28.10
2018-05-10T11:48:41.841Z,27.43
2018-05-10T11:51:08.526Z,27.27
2018-05-10T11:53:34.899Z,28.23
2018-05-10T11:56:02.106Z,28.07
2018-05-10T11:58:28.616Z,26.50
2018-05-10T12:00:55.323Z,29.20
2018-05-10T12:03:22.219Z,29.40
2018-05-10T12:05:49.214Z,30.37
2018-05-10T12:08:16.397Z,28.17
2018-05-10T12:10:43.318Z,27.70
2018-05-10T12:13:09.864Z,29.10
2018-05-10T12:15:36.205Z,31.33
2018-05-10T12:18:02.612Z,29.30
2018-05-10T12:20:29.086Z,28.20
2018-05-10T12:22:55.733Z,28.60
2018-05-10T12:25:26.015Z,29.67
2018-05-10T12:27:52.742Z,28.07
2018-05-10T12:30:19.449Z,24.47
2018-05-10T12:32:45.780Z,22.85
2018-05-10T12:35:12.949Z,22.23
2018-05-10T12:37:39.349Z,22.47
2018-05-10T12:40:06.814Z,22.50
2018-05-10T12:42:34.069Z,21.10
2018-05-10T12:45:01.323Z,22.33
2018-05-10T12:47:27.905Z,24.83
2018-05-10T12:49:54.335Z,24.35
2018-05-10T12:52:21.155Z,23.50
2018-05-10T12:54:48.058Z,23.50
2018-05-10T12:57:15.263Z,23.67
2018-05-10T12:59:41.899Z,22.53
2018-05-10T13:02:08.342Z,22.97
2018-05-10T13:04:35.131Z,21.23
2018-05-10T13:07:02.242Z,19.80
2018-05-10T13:09:29.368Z,19.93
2018-05-10T13:11:56.064Z,21.40
2018-05-10T13:14:22.983Z,23.20
2018-05-10T13:16:50.020Z,23.67
2018-05-10T13:19:16.720Z,21.87
2018-05-10T13:21:43.166Z,18.20
2018-05-10T13:24:09.470Z,12.80
2018-05-10T13:26:36.585Z,12.10
2018-05-10T13:29:03.529Z,11.07
2018-05-10T13:31:30.646Z,10.77
2018-05-10T13:33:57.081Z,10.47
2018-05-10T13:36:23.904Z,9.80
2018-05-10T13:38:50.554Z,8.45
2018-05-10T13:41:17.931Z,8.50
2018-05-10T13:43:44.441Z,9.23
2018-05-10T13:46:10.883Z,9.30
2018-05-10T13:48:38.253Z,8.93
2018-05-10T13:51:04.764Z,8.90
2018-05-10T13:53:32.250Z,10.43
2018-05-10T13:55:59.048Z,9.50
2018-05-10T13:58:25.494Z,11.65
2018-05-10T14:00:51.856Z,11.68
2018-05-10T14:03:18.275Z,12.88
2018-05-10T14:05:44.698Z,12.52
2018-05-10T14:08:11.151Z,14.20
2018-05-10T14:10:37.568Z,13.93
2018-05-10T14:13:03.980Z,16.83
2018-05-10T14:15:30.837Z,15.30
2018-05-10T14:17:57.249Z,16.80
2018-05-10T14:20:23.696Z,21.37
2018-05-10T14:22:51.171Z,21.37
2018-05-10T14:25:17.786Z,18.85
2018-05-10T14:27:44.153Z,18.55
2018-05-10T14:30:10.534Z,17.87
2018-05-10T14:32:37.933Z,18.10
2018-05-10T14:35:04.278Z,18.83
2018-05-10T14:37:31.474Z,16.70
2018-05-10T14:39:57.898Z,16.90
2018-05-10T14:42:24.277Z,16.13
2018-05-10T14:44:50.614Z,16.17
2018-05-10T14:47:17.785Z,13.88
2018-05-10T14:49:44.182Z,12.02
2018-05-10T14:52:10.535Z,11.55
2018-05-10T14:54:38.061Z,10.77
2018-05-10T14:57:04.453Z,9.52
2018-05-10T14:59:30.790Z,8.63
2018-05-10T15:01:57.251Z,7.65
2018-05-10T15:04:23.674Z,7.20
2018-05-10T15:06:50.062Z,6.87
2018-05-10T15:09:16.474Z,6.57
2018-05-10T15:11:43.792Z,8.02
2018-05-10T15:14:10.275Z,8.40
2018-05-10T15:16:37.424Z,7.05
2018-05-10T15:19:03.848Z,7.00
2018-05-10T15:21:31.134Z,6.18
2018-05-10T15:23:57.623Z,7.40
2018-05-10T15:26:24.911Z,6.32
2018-05-10T15:28:51.322Z,6.03
2018-05-10T15:31:18.564Z,6.57
2018-05-10T15:33:45.651Z,6.55
2018-05-10T15:36:16.486Z,6.03
2018-05-10T15:38:43.121Z,5.85
2018-05-10T15:41:09.676Z,6.30
2018-05-10T15:43:40.601Z,4.93
2018-05-10T15:46:07.279Z,5.32
2018-05-10T15:48:34.286Z,5.87
2018-05-10T15:51:00.743Z,5.40
2018-05-10T15:53:27.141Z,4.55
2018-05-10T15:55:54.236Z,4.82
2018-05-10T15:58:20.993Z,4.93
2018-05-10T16:00:47.427Z,5.37
2018-05-10T16:03:13.793Z,5.50
2018-05-10T16:05:40.988Z,4.87
2018-05-10T16:08:08.351Z,4.72
2018-05-10T16:10:35.505Z,5.10
2018-05-10T16:13:02.622Z,6.43
2018-05-10T16:15:29.086Z,5.82
2018-05-10T16:17:56.296Z,6.25
2018-05-10T16:20:22.788Z,6.00
2018-05-10T16:22:49.167Z,5.20
2018-05-10T16:25:15.518Z,6.37
2018-05-10T16:27:42.652Z,7.10
2018-05-10T16:30:09.040Z,6.07
2018-05-10T16:32:35.389Z,7.22
2018-05-10T16:35:02.211Z,5.25
2018-05-10T16:37:28.643Z,5.47
2018-05-10T16:39:55.129Z,5.80
2018-05-10T16:42:22.323Z,6.28
2018-05-10T16:44:49.764Z,6.95
2018-05-10T16:47:16.079Z,5.35
2018-05-10T16:49:43.279Z,5.45
2018-05-10T16:52:09.653Z,4.87
2018-05-10T16:54:36.047Z,5.72
2018-05-10T16:57:02.524Z,5.03
2018-05-10T16:59:28.959Z,4.47
2018-05-10T17:01:56.110Z,5.60
2018-05-10T17:04:22.582Z,5.00
2018-05-10T17:06:49.441Z,5.85
2018-05-10T17:09:15.907Z,5.57
2018-05-10T17:11:43.102Z,5.65
2018-05-10T17:14:10.300Z,6.65
2018-05-10T17:16:36.681Z,5.93
2018-05-10T17:19:03.214Z,5.40
2018-05-10T17:21:29.920Z,6.18
2018-05-10T17:23:56.506Z,5.50
2018-05-10T17:26:23.106Z,5.60
2018-05-10T17:28:50.813Z,5.68
2018-05-10T17:31:17.325Z,5.72
2018-05-10T17:33:43.902Z,5.72
2018-05-10T17:36:11.121Z,5.75
2018-05-10T17:38:41.906Z,5.80
2018-05-10T17:41:09.438Z,5.60
2018-05-10T17:43:35.936Z,7.15
2018-05-10T17:46:02.618Z,5.85
2018-05-10T17:48:30.203Z,6.50
2018-05-10T17:50:58.202Z,6.00
2018-05-10T17:53:25.522Z,6.47
2018-05-10T17:55:52.920Z,5.80
2018-05-10T17:58:19.495Z,6.12
2018-05-10T18:00:46.262Z,6.32
2018-05-10T18:03:12.771Z,6.90
2018-05-10T18:05:39.413Z,7.07
2018-05-10T18:08:06.196Z,7.70
2018-05-10T18:10:32.590Z,6.35
2018-05-10T18:12:59.659Z,6.30
2018-05-10T18:15:26.176Z,7.32
2018-05-10T18:17:52.545Z,9.70
2018-05-10T18:20:18.941Z,13.85
2018-05-10T18:22:45.644Z,15.30
2018-05-10T18:25:12.126Z,16.65
2018-05-10T18:27:38.764Z,19.35
2018-05-10T18:30:05.240Z,19.77
2018-05-10T18:32:32.140Z,18.77
2018-05-10T18:34:58.942Z,21.87
2018-05-10T18:37:30.428Z,20.33
2018-05-10T18:39:57.270Z,19.42
2018-05-10T18:42:23.934Z,14.48
2018-05-10T18:44:50.696Z,14.57
2018-05-10T18:47:17.795Z,11.90
2018-05-10T18:49:44.256Z,12.75
2018-05-10T18:52:10.966Z,9.52
2018-05-10T18:54:37.500Z,10.68
2018-05-10T18:57:04.352Z,9.05
2018-05-10T18:59:30.941Z,9.88
2018-05-10T19:01:59.169Z,8.30
2018-05-10T19:04:25.588Z,9.40
2018-05-10T19:06:52.390Z,8.00
2018-05-10T19:09:18.891Z,8.60
2018-05-10T19:11:45.342Z,8.32
2018-05-10T19:14:12.683Z,8.40
2018-05-10T19:16:39.228Z,8.18
2018-05-10T19:19:06.916Z,10.32
2018-05-10T19:21:33.462Z,8.80
2018-05-10T19:24:00.479Z,9.90
2018-05-10T19:26:27.204Z,9.75
2018-05-10T19:28:53.637Z,9.25
2018-05-10T19:31:20.049Z,9.38
2018-05-10T19:33:46.574Z,8.43
2018-05-10T19:36:13.020Z,8.73
2018-05-10T19:38:39.455Z,8.85
2018-05-10T19:41:06.043Z,8.60
2018-05-10T19:43:32.598Z,9.18
2018-05-10T19:45:59.058Z,9.27
2018-05-10T19:48:26.255Z,9.20
2018-05-10T19:50:52.646Z,10.00
2018-05-10T19:53:19.083Z,10.48
2018-05-10T19:55:45.567Z,10.32
2018-05-10T19:58:11.980Z,9.90
2018-05-10T20:00:38.414Z,11.65
2018-05-10T20:03:05.006Z,10.27
2018-05-10T20:05:31.500Z,11.00
2018-05-10T20:07:57.972Z,10.25
2018-05-10T20:10:24.473Z,11.00
2018-05-10T20:12:51.259Z,13.23
2018-05-10T20:15:17.804Z,13.90
2018-05-10T20:17:44.347Z,17.05
2018-05-10T20:20:15.726Z,18.77
2018-05-10T20:22:42.220Z,18.30
2018-05-10T20:25:08.746Z,16.92
2018-05-10T20:27:35.106Z,16.58
2018-05-10T20:30:01.671Z,18.37
2018-05-10T20:32:28.994Z,20.42
2018-05-10T20:34:55.746Z,27.08
2018-05-10T20:37:22.318Z,28.90
2018-05-10T20:39:48.744Z,28.42
2018-05-10T20:42:15.148Z,27.33
2018-05-10T20:44:41.630Z,29.50
2018-05-10T20:47:08.047Z,25.35
2018-05-10T20:49:35.452Z,25.83
2018-05-10T20:52:01.945Z,25.60
2018-05-10T20:54:28.483Z,24.73
2018-05-10T20:56:54.843Z,25.45
2018-05-10T20:59:21.272Z,21.77
2018-05-10T21:01:47.742Z,22.00
2018-05-10T21:04:14.321Z,20.30
2018-05-10T21:06:40.758Z,20.48
2018-05-10T21:09:07.465Z,14.98
2018-05-10T21:11:33.926Z,13.60
2018-05-10T21:14:00.399Z,10.95
2018-05-10T21:16:27.073Z,8.50
2018-05-10T21:18:53.471Z,8.23
2018-05-10T21:21:19.975Z,9.63
2018-05-10T21:23:46.393Z,8.82
2018-05-10T21:26:13.004Z,9.23
2018-05-10T21:28:39.398Z,9.00
2018-05-10T21:31:06.021Z,8.32
2018-05-10T21:33:32.548Z,8.20
2018-05-10T21:35:59.008Z,8.20
2018-05-10T21:38:25.562Z,8.35
2018-05-10T21:40:51.947Z,8.60
2018-05-10T21:43:18.416Z,8.48
2018-05-10T21:45:44.975Z,7.87
2018-05-10T21:48:12.875Z,8.77
2018-05-10T21:50:39.429Z,7.32
2018-05-10T21:53:06.033Z,6.60
2018-05-10T21:55:32.476Z,5.50
2018-05-10T21:57:58.912Z,6.78
2018-05-10T22:00:25.395Z,5.40
2018-05-10T22:02:51.880Z,6.05
2018-05-10T22:05:18.473Z,5.72
2018-05-10T22:07:44.947Z,5.57
2018-05-10T22:10:11.590Z,5.50
2018-05-10T22:12:38.045Z,6.28
2018-05-10T22:15:04.659Z,5.62
2018-05-10T22:17:31.255Z,6.37
2018-05-10T22:19:57.756Z,6.30
2018-05-10T22:22:24.124Z,6.18
2018-05-10T22:24:50.667Z,5.78
2018-05-10T22:27:18.071Z,5.57
2018-05-10T22:29:44.468Z,6.00
2018-05-10T22:32:11.776Z,6.35
2018-05-10T22:34:38.241Z,5.47
2018-05-10T22:37:05.392Z,4.72
2018-05-10T22:39:31.880Z,4.90
2018-05-10T22:41:58.323Z,5.75
2018-05-10T22:44:24.793Z,4.70
2018-05-10T22:46:51.122Z,4.95
2018-05-10T22:49:18.337Z,5.65
2018-05-10T22:51:44.729Z,5.15
2018-05-10T22:54:11.112Z,4.57
2018-05-10T22:56:37.604Z,4.90
2018-05-10T22:59:04.122Z,5.00
2018-05-10T23:01:30.625Z,5.00
2018-05-10T23:03:57.121Z,4.93
2018-05-10T23:06:23.600Z,4.37
2018-05-10T23:08:50.000Z,5.32
2018-05-10T23:11:16.403Z,5.65
2018-05-10T23:13:42.916Z,5.45
2018-05-10T23:16:09.386Z,4.65
2018-05-10T23:18:35.724Z,5.90
2018-05-10T23:21:02.199Z,5.28
2018-05-10T23:23:28.621Z,5.37
2018-05-10T23:25:55.002Z,5.85
2018-05-10T23:28:21.488Z,5.82
2018-05-10T23:30:47.891Z,6.35
2018-05-10T23:33:14.390Z,4.55
2018-05-10T23:35:40.923Z,5.22
2018-05-10T23:38:07.124Z,5.90
2018-05-10T23:40:34.310Z,5.70
2018-05-10T23:43:00.764Z,5.43
2018-05-10T23:45:31.363Z,5.70
2018-05-10T23:47:58.498Z,4.97
2018-05-10T23:50:25.786Z,5.90
2018-05-10T23:52:52.187Z,6.00
2018-05-10T23:55:18.541Z,5.57
2018-05-10T23:57:44.971Z,5.90
